Time;durP1;ratioP1;P1;durP2;ratioP2;P2;SDS_P1;SDS_P2;PMS_P1;PMS_P2;Temp;Humidity;BMP_temperature;BMP_pressure;BME280_temperature;BME280_humidity;BME280_pressure;Samples;Min_cycle;Max_cycle;Signal;HPM_P1;HPM_P2
2022/05/08 00:02:16;;;;;;;10.88;4.78;;;;;;;10.12;95.68;99260.59;5046995;28;20021;-64
2022/05/08 00:04:41;;;;;;;8.98;4.30;;;;;;;9.95;96.04;99234.81;5046990;28;20104;-65
2022/05/08 00:07:07;;;;;;;7.00;4.65;;;;;;;10.02;96.12;99246.53;5041511;28;20123;-64
2022/05/08 00:09:32;;;;;;;6.88;4.57;;;;;;;9.90;96.61;99235.34;5046588;28;20091;-65
2022/05/08 00:11:58;;;;;;;7.38;4.88;;;;;;;9.88;97.36;99246.38;5046477;28;20486;-65
2022/05/08 00:14:23;;;;;;;9.23;4.78;;;;;;;9.70;97.47;99245.09;5045510;28;20031;-65
2022/05/08 00:16:49;;;;;;;7.78;5.47;;;;;;;9.60;99.00;99250.75;5047585;28;20406;-65
2022/05/08 00:19:14;;;;;;;12.07;6.95;;;;;;;9.56;99.28;99250.31;5043334;28;20040;-64
2022/05/08 00:21:39;;;;;;;10.32;6.28;;;;;;;9.58;99.27;99244.69;5046447;28;20037;-65
2022/05/08 00:24:05;;;;;;;11.15;6.57;;;;;;;9.52;99.68;99246.28;5042797;28;20102;-65
2022/05/08 00:26:31;;;;;;;12.98;6.38;;;;;;;9.46;99.77;99225.44;5046827;28;20036;-64
2022/05/08 00:28:56;;;;;;;10.57;6.40;;;;;;;9.57;100.00;99233.06;5046925;28;20021;-65
2022/05/08 00:31:22;;;;;;;10.13;6.35;;;;;;;9.44;100.00;99213.97;5046622;28;20052;-65
2022/05/08 00:33:47;;;;;;;9.68;6.75;;;;;;;9.43;100.00;99229.34;5047152;28;20029;-65
2022/05/08 00:36:13;;;;;;;13.30;6.72;;;;;;;9.29;100.00;99219.34;5074158;22;20041;-68
2022/05/08 00:38:38;;;;;;;10.98;7.05;;;;;;;9.32;100.00;99234.34;5077460;28;20462;-67
2022/05/08 00:41:03;;;;;;;8.43;5.68;;;;;;;9.23;100.00;99219.28;5079841;28;20021;-67
2022/05/08 00:43:32;;;;;;;8.43;6.25;;;;;;;9.17;100.00;99235.19;5085438;28;20025;-68
2022/05/08 00:45:58;;;;;;;9.57;5.90;;;;;;;9.11;100.00;99232.38;5076671;28;20020;-68
2022/05/08 00:48:24;;;;;;;11.85;7.07;;;;;;;9.34;100.00;99240.41;5089570;28;20028;-67
2022/05/08 00:50:51;;;;;;;12.07;7.25;;;;;;;9.45;100.00;99245.34;5088566;28;20108;-67
2022/05/08 00:53:17;;;;;;;13.30;6.82;;;;;;;9.45;100.00;99250.75;5087520;28;20028;-67
2022/05/08 00:55:43;;;;;;;8.20;5.65;;;;;;;9.39;100.00;99246.09;5106218;28;20028;-68
2022/05/08 00:58:08;;;;;;;7.55;5.47;;;;;;;9.32;100.00;99232.47;5089016;28;20032;-68
2022/05/08 01:00:34;;;;;;;10.32;6.47;;;;;;;9.17;100.00;99226.25;5092473;28;20040;-68
2022/05/08 01:02:59;;;;;;;12.65;6.78;;;;;;;9.00;100.00;99236.34;5095621;28;20115;-67
2022/05/08 01:05:25;;;;;;;12.50;6.32;;;;;;;8.88;100.00;99235.97;5086622;28;20097;-68
2022/05/08 01:07:50;;;;;;;8.90;5.75;;;;;;;8.81;100.00;99231.47;5081961;28;20110;-68
2022/05/08 01:10:16;;;;;;;6.90;5.13;;;;;;;8.60;100.00;99215.97;5078375;28;20053;-67
2022/05/08 01:12:44;;;;;;;9.18;5.93;;;;;;;8.56;100.00;99227.06;5100108;28;20393;-67
2022/05/08 01:15:20;;;;;;;7.32;5.70;;;;;;;8.54;100.00;99236.38;5092540;28;20018;-67
2022/05/08 01:17:46;;;;;;;10.27;6.80;;;;;;;8.58;100.00;99232.31;5081238;28;20043;-67
2022/05/08 01:20:12;;;;;;;11.50;6.43;;;;;;;8.67;100.00;99235.78;5073928;28;20047;-67
2022/05/08 01:22:37;;;;;;;10.50;6.43;;;;;;;8.60;100.00;99229.44;5073289;28;20478;-67
2022/05/08 01:25:03;;;;;;;8.00;6.18;;;;;;;8.73;100.00;99229.66;5075839;28;20473;-68
2022/05/08 01:27:28;;;;;;;9.23;6.80;;;;;;;8.89;100.00;99223.31;5074822;28;20077;-68
2022/05/08 01:29:54;;;;;;;9.60;6.53;;;;;;;8.93;100.00;99219.19;5076953;28;20028;-67
2022/05/08 01:32:20;;;;;;;11.23;6.22;;;;;;;9.02;100.00;99233.47;5073882;28;20059;-67
2022/05/08 01:34:45;;;;;;;8.23;5.63;;;;;;;8.99;100.00;99231.97;5065582;28;20115;-67
2022/05/08 01:37:11;;;;;;;10.25;6.25;;;;;;;8.95;100.00;99234.19;5068727;28;20033;-67
2022/05/08 01:39:36;;;;;;;10.23;6.68;;;;;;;8.99;100.00;99235.50;5070057;28;20051;-67
2022/05/08 01:42:04;;;;;;;11.48;6.05;;;;;;;8.81;100.00;99226.06;5072665;28;20074;-68
2022/05/08 01:44:30;;;;;;;10.05;6.20;;;;;;;8.56;100.00;99220.84;5064257;28;20039;-67
2022/05/08 01:48:21;;;;;;;9.52;6.28;;;;;;;8.51;100.00;99242.13;5073938;28;20028;-69
2022/05/08 01:49:41;;;;;;;9.25;6.97;;;;;;;8.46;100.00;99233.72;5061620;28;20393;-68
2022/05/08 01:52:07;;;;;;;9.27;6.85;;;;;;;8.45;100.00;99240.16;5071768;28;20024;-67
2022/05/08 01:54:32;;;;;;;9.65;6.85;;;;;;;8.51;100.00;99234.91;5073729;28;20537;-68
2022/05/08 01:56:58;;;;;;;9.18;6.75;;;;;;;8.57;100.00;99233.34;5073199;28;20020;-68
2022/05/08 01:59:23;;;;;;;11.35;7.45;;;;;;;8.55;100.00;99238.91;5073400;28;20032;-68
2022/05/08 02:01:49;;;;;;;9.15;7.20;;;;;;;8.40;100.00;99238.00;5073463;28;20478;-67
2022/05/08 02:04:15;;;;;;;12.75;7.40;;;;;;;8.46;100.00;99244.53;5073567;28;20069;-68
2022/05/08 02:06:46;;;;;;;12.80;7.85;;;;;;;8.50;100.00;99235.91;5071307;28;20031;-67
2022/05/08 02:09:11;;;;;;;14.45;7.68;;;;;;;8.26;100.00;99231.47;5065740;28;20039;-67
2022/05/08 02:11:37;;;;;;;9.85;6.95;;;;;;;8.24;100.00;99241.59;5074543;28;20374;-68
2022/05/08 02:14:02;;;;;;;9.95;7.38;;;;;;;8.18;100.00;99241.47;5068799;28;20044;-68
2022/05/08 02:16:28;;;;;;;11.05;7.25;;;;;;;8.16;100.00;99249.72;5070266;28;20048;-69
2022/05/08 02:18:54;;;;;;;10.85;7.50;;;;;;;8.11;100.00;99244.88;5069327;28;20024;-67
2022/05/08 02:21:20;;;;;;;10.35;7.68;;;;;;;8.06;100.00;99243.72;5066964;28;20113;-67
2022/05/08 02:23:45;;;;;;;10.30;7.68;;;;;;;8.07;100.00;99243.56;5071299;28;20035;-70
2022/05/08 02:26:10;;;;;;;9.20;7.47;;;;;;;7.93;100.00;99232.66;5070861;28;20032;-67
2022/05/08 02:28:35;;;;;;;11.57;7.32;;;;;;;8.07;100.00;99248.13;5070639;28;20104;-68
2022/05/08 02:31:01;;;;;;;11.10;7.68;;;;;;;7.96;100.00;99248.47;5071176;28;20683;-67
2022/05/08 02:33:26;;;;;;;13.35;8.50;;;;;;;7.93;100.00;99249.66;5064873;28;20020;-67
2022/05/08 02:35:52;;;;;;;11.70;7.93;;;;;;;7.87;100.00;99243.13;5070907;28;20476;-68
2022/05/08 02:38:17;;;;;;;12.13;8.35;;;;;;;7.92;100.00;99244.47;5069877;28;20068;-67
2022/05/08 02:40:42;;;;;;;11.73;8.90;;;;;;;7.91;100.00;99249.00;5067038;28;20028;-69
2022/05/08 02:43:08;;;;;;;12.35;8.27;;;;;;;8.04;100.00;99252.00;5078701;28;20036;-68
2022/05/08 02:45:33;;;;;;;14.15;8.55;;;;;;;8.11;100.00;99239.47;5082732;28;20016;-69
2022/05/08 02:47:58;;;;;;;12.38;8.70;;;;;;;8.29;100.00;99249.16;5083524;28;20034;-68
2022/05/08 02:50:24;;;;;;;10.77;7.95;;;;;;;8.38;100.00;99252.63;5078785;28;20043;-69
2022/05/08 02:52:50;;;;;;;8.98;6.68;;;;;;;8.28;100.00;99242.94;5083342;28;20040;-68
2022/05/08 03:00:45;;;;;;;14.57;7.28;;;;;;;8.31;100.00;99244.44;5076066;28;20519;-67
2022/05/08 03:03:12;;;;;;;11.98;7.30;;;;;;;8.34;100.00;99247.59;5083921;28;20032;-68
2022/05/08 03:05:40;;;;;;;9.02;7.07;;;;;;;8.31;100.00;99239.03;5084690;28;20070;-68
2022/05/08 03:08:05;;;;;;;14.98;7.75;;;;;;;8.24;100.00;99221.91;5080639;28;20032;-69
2022/05/08 03:11:25;;;;;;;11.35;7.68;;;;;;;8.29;100.00;99243.75;5081043;28;20021;-69
2022/05/08 03:13:16;;;;;;;10.40;7.50;;;;;;;8.07;100.00;99235.47;5086054;28;20040;-69
2022/05/08 03:15:41;;;;;;;10.63;7.72;;;;;;;8.17;100.00;99239.78;5077979;28;20078;-70
2022/05/08 03:18:07;;;;;;;12.07;7.28;;;;;;;7.98;100.00;99241.06;5086931;28;20089;-68
2022/05/08 03:20:33;;;;;;;12.73;7.75;;;;;;;7.93;100.00;99244.28;5068989;28;20095;-68
2022/05/08 03:22:59;;;;;;;11.57;7.75;;;;;;;7.94;100.00;99256.75;5069257;28;20107;-67
2022/05/08 03:25:24;;;;;;;12.90;8.18;;;;;;;7.85;100.00;99247.00;5072350;28;20024;-67
2022/05/08 03:27:50;;;;;;;13.68;8.93;;;;;;;7.79;100.00;99253.94;5074162;28;20032;-68
2022/05/08 03:30:15;;;;;;;12.45;8.00;;;;;;;7.69;100.00;99239.84;5066784;28;20028;-69
2022/05/08 03:32:40;;;;;;;14.00;9.10;;;;;;;7.74;100.00;99250.09;5068350;28;20027;-68
2022/05/08 03:35:06;;;;;;;12.32;8.88;;;;;;;7.72;100.00;99257.50;5070913;28;20017;-67
2022/05/08 03:37:33;;;;;;;12.80;8.73;;;;;;;7.49;100.00;99231.31;5071478;28;20035;-67
2022/05/08 03:39:59;;;;;;;11.38;8.65;;;;;;;7.55;100.00;99256.72;5072421;28;20028;-67
2022/05/08 03:42:24;;;;;;;11.32;8.77;;;;;;;7.54;100.00;99249.66;5070224;28;20410;-67
2022/05/08 03:44:53;;;;;;;14.32;9.18;;;;;;;7.56;100.00;99242.25;5065774;28;20054;-68
2022/05/08 03:47:19;;;;;;;10.73;8.02;;;;;;;7.52;100.00;99228.31;5072401;28;20039;-69
2022/05/08 03:49:44;;;;;;;14.93;8.98;;;;;;;7.61;100.00;99251.47;5071782;28;20028;-69
2022/05/08 03:52:09;;;;;;;10.88;8.20;;;;;;;7.56;100.00;99256.53;5059268;28;20025;-67
2022/05/08 03:54:35;;;;;;;11.07;7.60;;;;;;;7.52;100.00;99255.22;5070937;28;20021;-68
2022/05/08 03:57:00;;;;;;;11.50;8.13;;;;;;;7.49;100.00;99257.41;5067519;28;20120;-67
2022/05/08 03:59:25;;;;;;;11.77;7.65;;;;;;;7.45;100.00;99265.00;5071918;28;20029;-68
2022/05/08 04:01:54;;;;;;;10.35;7.93;;;;;;;7.41;100.00;99271.72;5067256;28;20108;-68
2022/05/08 04:04:20;;;;;;;11.63;7.72;;;;;;;7.40;100.00;99270.06;5069931;28;20029;-69
2022/05/08 04:06:45;;;;;;;10.15;7.72;;;;;;;7.42;100.00;99273.41;5069480;28;20032;-68
2022/05/08 04:09:10;;;;;;;10.90;7.88;;;;;;;7.33;100.00;99264.50;5069810;28;20039;-67
2022/05/08 04:11:35;;;;;;;11.80;8.88;;;;;;;7.43;100.00;99280.47;5067780;28;20020;-68
2022/05/08 04:14:01;;;;;;;12.00;7.63;;;;;;;7.44;100.00;99271.38;5068693;28;20060;-69
2022/05/08 04:16:26;;;;;;;10.75;8.20;;;;;;;7.47;100.00;99284.53;5075651;28;20020;-67
2022/05/08 04:18:51;;;;;;;12.18;8.70;;;;;;;7.54;100.00;99280.09;5072750;28;20028;-68
2022/05/08 04:21:17;;;;;;;10.68;7.85;;;;;;;7.59;100.00;99291.19;5070801;28;20036;-67
2022/05/08 04:26:26;;;;;;;11.32;7.55;;;;;;;7.84;100.00;99289.28;5076740;28;20113;-68
2022/05/08 04:28:51;;;;;;;10.98;7.20;;;;;;;7.95;100.00;99296.16;5064881;28;20111;-68
2022/05/08 04:31:17;;;;;;;9.75;7.10;;;;;;;8.05;100.00;99296.78;5068366;28;20040;-67
2022/05/08 04:33:44;;;;;;;14.90;7.93;;;;;;;7.97;100.00;99295.97;5070141;28;20071;-68
2022/05/08 04:36:09;;;;;;;15.25;6.68;;;;;;;7.97;100.00;99288.72;5075328;28;20656;-68
2022/05/08 04:38:34;;;;;;;10.25;7.55;;;;;;;7.96;100.00;99297.81;5073030;28;20103;-67
2022/05/08 04:41:00;;;;;;;15.52;7.82;;;;;;;7.99;100.00;99300.19;5069068;28;20027;-67
2022/05/08 04:43:25;;;;;;;11.13;7.57;;;;;;;8.01;100.00;99289.22;5074025;28;20074;-67
2022/05/08 04:45:50;;;;;;;10.20;7.70;;;;;;;8.22;100.00;99299.41;5076031;28;20135;-68
2022/05/08 04:48:16;;;;;;;11.15;6.95;;;;;;;8.25;100.00;99288.25;5072943;28;20055;-69
2022/05/08 04:50:41;;;;;;;10.07;7.05;;;;;;;8.32;100.00;99297.31;5072153;28;20035;-67
2022/05/08 04:53:06;;;;;;;10.13;7.78;;;;;;;8.34;100.00;99303.38;5072875;28;20020;-68
2022/05/08 04:55:32;;;;;;;13.75;7.22;;;;;;;8.38;100.00;99314.63;5073336;28;20040;-67
2022/05/08 04:57:57;;;;;;;11.02;7.38;;;;;;;8.34;100.00;99287.22;5070745;28;20586;-67
2022/05/08 05:00:22;;;;;;;10.48;7.35;;;;;;;8.49;100.00;99306.22;5072511;28;20056;-68
2022/05/08 05:02:48;;;;;;;9.23;6.70;;;;;;;8.64;100.00;99306.25;5074108;28;20055;-68
2022/05/08 05:05:13;;;;;;;13.82;7.47;;;;;;;8.76;100.00;99289.50;5074577;28;20021;-68
2022/05/08 05:07:40;;;;;;;10.82;6.60;;;;;;;8.87;100.00;99312.50;5070691;28;20028;-68
2022/05/08 05:10:07;;;;;;;11.05;7.22;;;;;;;8.90;100.00;99314.00;5074828;28;20017;-67
2022/05/08 05:12:32;;;;;;;10.25;6.93;;;;;;;8.82;100.00;99289.78;5065549;28;20398;-67
2022/05/08 05:14:59;;;;;;;9.98;7.32;;;;;;;8.98;100.00;99317.47;5075513;28;20165;-67
2022/05/08 05:17:25;;;;;;;11.10;7.07;;;;;;;9.04;100.00;99317.78;5071796;28;20097;-67
2022/05/08 05:19:51;;;;;;;17.88;6.88;;;;;;;9.11;100.00;99314.19;5075602;28;20033;-67
2022/05/08 05:22:20;;;;;;;9.68;7.78;;;;;;;9.17;100.00;99302.66;5070191;28;20371;-67
2022/05/08 05:24:46;;;;;;;;;;;;;;;9.26;100.00;99316.94;5076367;28;20024;-67
2022/05/08 05:27:11;;;;;;;10.57;6.97;;;;;;;9.43;100.00;99313.06;5067347;28;20354;-67
2022/05/08 05:29:36;;;;;;;9.57;7.00;;;;;;;9.61;100.00;99314.56;5073649;28;20042;-67
2022/05/08 05:32:02;;;;;;;10.60;6.28;;;;;;;9.95;99.94;99310.47;5072187;28;20027;-67
2022/05/08 05:34:27;;;;;;;13.98;7.35;;;;;;;10.30;98.59;99317.03;5075947;28;20107;-67
2022/05/08 05:36:52;;;;;;;12.88;7.38;;;;;;;10.63;95.22;99309.28;5084054;28;20020;-66
2022/05/08 05:39:18;;;;;;;12.30;8.30;;;;;;;10.69;95.67;99305.81;5073805;28;20451;-67
2022/05/08 05:41:43;;;;;;;15.98;9.68;;;;;;;10.86;95.37;99319.09;5072155;28;20032;-70
2022/05/08 05:44:08;;;;;;;14.48;10.38;;;;;;;10.84;92.69;99307.63;5058920;28;20044;-71
2022/05/08 05:49:17;;;;;;;10.02;8.57;;;;;;;11.12;90.06;99302.28;5064080;28;20071;-70
2022/05/08 05:51:43;;;;;;;10.25;7.43;;;;;;;11.16;89.90;99317.97;5087145;28;20060;-71
2022/05/08 05:54:08;;;;;;;9.57;7.40;;;;;;;11.19;90.88;99316.72;5070529;28;20082;-67
2022/05/08 05:56:33;;;;;;;14.40;9.07;;;;;;;11.12;90.59;99311.25;5073416;28;20378;-75
2022/05/08 05:58:59;;;;;;;11.20;8.32;;;;;;;11.33;88.97;99323.91;5070357;28;20438;-71
2022/05/08 06:01:24;;;;;;;13.45;7.55;;;;;;;11.45;88.93;99297.16;5068898;28;20107;-71
2022/05/08 06:03:49;;;;;;;9.80;7.28;;;;;;;11.83;88.93;99313.03;5067962;28;20397;-70
2022/05/08 06:06:15;;;;;;;13.07;7.43;;;;;;;11.98;88.50;99324.63;5068403;28;20032;-70
2022/05/08 06:08:40;;;;;;;12.68;7.40;;;;;;;11.99;85.88;99323.59;5074673;28;20070;-69
2022/05/08 06:11:06;;;;;;;10.13;6.88;;;;;;;12.27;85.06;99311.84;5069673;28;20051;-70
2022/05/08 06:13:32;;;;;;;12.43;6.93;;;;;;;12.42;84.87;99326.13;5067893;28;20042;-70
2022/05/08 06:15:58;;;;;;;11.50;8.00;;;;;;;12.44;83.88;99318.63;5070387;28;20037;-70
2022/05/08 06:18:24;;;;;;;12.13;7.60;;;;;;;12.46;82.73;99330.06;5074356;28;20017;-70
2022/05/08 06:20:50;;;;;;;11.02;6.90;;;;;;;12.62;82.13;99336.19;5071845;28;20456;-70
2022/05/08 06:23:15;;;;;;;9.32;6.97;;;;;;;13.11;79.35;99335.06;5085281;28;20120;-70
2022/05/08 06:25:41;;;;;;;8.63;6.70;;;;;;;13.19;77.89;99326.72;5071361;28;20071;-70
2022/05/08 06:28:08;;;;;;;10.23;7.30;;;;;;;13.81;74.57;99340.97;5084537;28;20028;-69
2022/05/08 06:30:33;;;;;;;9.88;7.15;;;;;;;14.68;71.51;99326.06;5071312;28;20119;-68
2022/05/08 06:32:58;;;;;;;11.52;6.88;;;;;;;16.03;65.93;99334.94;5072268;28;20466;-68
2022/05/08 06:35:24;;;;;;;10.40;7.20;;;;;;;17.45;59.53;99340.88;5066096;28;20024;-68
2022/05/08 06:37:49;;;;;;;9.95;6.70;;;;;;;17.56;57.84;99341.97;5073058;22;20129;-68
2022/05/08 06:40:14;;;;;;;8.63;6.30;;;;;;;16.41;61.84;99324.63;5051799;28;20036;-67
2022/05/08 06:42:40;;;;;;;10.20;6.43;;;;;;;16.20;61.94;99322.38;5056340;28;20049;-67
2022/05/08 06:45:06;;;;;;;8.60;6.35;;;;;;;17.04;60.56;99341.72;5050739;28;20099;-67
2022/05/08 06:47:31;;;;;;;8.95;6.38;;;;;;;16.97;60.92;99343.69;5045646;28;20490;-67
2022/05/08 06:49:56;;;;;;;8.15;6.65;;;;;;;16.83;60.50;99330.22;5051802;28;20540;-67
2022/05/08 06:52:22;;;;;;;10.98;6.85;;;;;;;16.27;62.60;99349.56;5057477;28;20032;-67
2022/05/08 06:54:47;;;;;;;10.13;7.25;;;;;;;15.66;65.97;99343.84;5045439;28;20541;-65
2022/05/08 06:57:12;;;;;;;10.27;6.82;;;;;;;15.39;67.28;99348.69;5049703;28;20585;-64
2022/05/08 07:02:21;;;;;;;13.40;9.43;;;;;;;15.20;67.89;99357.84;5051035;28;20082;-64
2022/05/08 07:04:47;;;;;;;10.00;8.63;;;;;;;15.22;68.27;99339.38;5050897;28;20021;-65
2022/05/08 07:07:13;;;;;;;12.07;8.52;;;;;;;15.20;68.93;99346.94;5044798;28;20727;-64
2022/05/08 07:09:38;;;;;;;13.27;8.55;;;;;;;15.62;67.29;99350.00;5050406;28;20024;-64
2022/05/08 07:12:03;;;;;;;11.27;8.50;;;;;;;15.79;67.36;99353.84;5052575;28;20029;-64
2022/05/08 07:14:29;;;;;;;11.73;8.57;;;;;;;15.85;67.38;99335.72;5049102;28;20040;-64
2022/05/08 07:16:54;;;;;;;13.98;8.32;;;;;;;15.78;66.87;99341.25;5048614;28;20029;-65
2022/05/08 07:19:20;;;;;;;11.57;9.02;;;;;;;15.93;65.60;99369.03;5048539;28;20035;-64
2022/05/08 07:21:45;;;;;;;11.30;8.70;;;;;;;16.09;65.03;99364.06;5044744;28;20083;-65
2022/05/08 07:24:10;;;;;;;14.77;9.38;;;;;;;16.15;65.44;99365.88;5048218;28;20028;-65
2022/05/08 07:26:36;;;;;;;11.27;7.88;;;;;;;17.31;61.32;99364.84;5049641;28;20501;-65
2022/05/08 07:29:04;;;;;;;10.13;8.13;;;;;;;17.95;58.37;99356.06;5048924;28;20033;-70
2022/05/08 07:31:30;;;;;;;13.32;8.30;;;;;;;19.29;53.85;99338.56;5049397;28;20021;-70
2022/05/08 07:36:39;;;;;;;9.30;7.53;;;;;;;21.16;50.09;99357.19;5049759;28;20040;-69
2022/05/08 07:39:04;;;;;;;13.00;8.32;;;;;;;22.18;46.90;99365.50;5047861;28;20033;-70
2022/05/08 07:41:30;;;;;;;11.55;8.20;;;;;;;22.42;46.19;99365.13;5047794;28;20078;-70
2022/05/08 07:43:55;;;;;;;10.45;7.90;;;;;;;23.13;44.56;99364.59;5045550;28;20029;-70
2022/05/08 07:46:21;;;;;;;10.90;8.90;;;;;;;22.66;44.11;99371.88;5049591;28;20497;-70
2022/05/08 07:48:46;;;;;;;9.27;7.63;;;;;;;22.63;44.83;99366.06;5051701;28;20059;-70
2022/05/08 07:51:11;;;;;;;11.02;7.75;;;;;;;22.18;46.76;99356.41;5048682;28;20035;-70
2022/05/08 07:53:37;;;;;;;12.27;8.40;;;;;;;22.15;46.77;99381.75;5050106;28;20110;-70
2022/05/08 07:56:02;;;;;;;9.63;8.10;;;;;;;21.18;48.03;99374.28;5052014;28;20098;-70
2022/05/08 07:58:29;;;;;;;11.20;8.05;;;;;;;20.14;50.95;99375.09;5048008;28;20028;-70
2022/05/08 08:00:56;;;;;;;10.80;7.90;;;;;;;19.99;52.89;99375.72;5050790;28;20021;-68
2022/05/08 08:03:23;;;;;;;14.13;8.13;;;;;;;19.60;53.31;99383.00;5050246;28;20024;-68
2022/05/08 08:05:49;;;;;;;8.88;7.63;;;;;;;19.67;54.05;99380.94;5051688;28;20108;-68
2022/05/08 08:08:16;;;;;;;10.48;9.10;;;;;;;19.78;53.39;99382.81;5048859;28;20124;-68
2022/05/08 08:10:41;;;;;;;11.02;8.00;;;;;;;20.04;53.45;99366.72;5031042;28;20021;-72
2022/05/08 08:13:07;;;;;;;10.73;8.00;;;;;;;20.97;50.96;99386.16;5044708;28;20497;-66
2022/05/08 08:15:32;;;;;;;11.05;7.80;;;;;;;22.01;49.09;99386.91;5047390;28;20020;-67
2022/05/08 08:17:58;;;;;;;9.32;7.78;;;;;;;22.68;47.26;99382.63;5049437;28;20479;-68
2022/05/08 08:20:23;;;;;;;12.10;7.97;;;;;;;23.96;43.58;99380.19;5047974;28;20136;-68
2022/05/08 08:22:48;;;;;;;7.35;6.47;;;;;;;25.44;40.81;99379.72;5049588;28;20062;-68
2022/05/08 08:25:14;;;;;;;8.90;7.38;;;;;;;25.82;39.29;99371.66;5035139;28;20371;-67
2022/05/08 08:27:39;;;;;;;12.02;6.55;;;;;;;26.12;39.15;99387.25;5050331;28;20029;-68
2022/05/08 08:30:05;;;;;;;9.02;7.03;;;;;;;26.15;37.80;99391.38;5049187;28;20509;-70
2022/05/08 08:32:31;;;;;;;8.13;6.35;;;;;;;25.84;40.06;99391.66;5049853;28;20017;-66
2022/05/08 08:34:57;;;;;;;8.95;6.90;;;;;;;24.63;41.75;99372.63;5048081;28;20106;-65
2022/05/08 08:37:22;;;;;;;9.07;7.22;;;;;;;22.57;45.66;99397.47;5041356;28;20428;-63
2022/05/08 08:39:48;;;;;;;9.10;7.00;;;;;;;21.85;46.55;99367.50;5050606;28;20395;-71
2022/05/08 08:42:31;;;;;;;8.73;7.22;;;;;;;21.89;47.65;99398.91;5044207;28;20382;-62
2022/05/08 08:47:54;;;;;;;10.50;7.55;;;;;;;21.38;49.73;99394.88;5051633;28;20402;-62
2022/05/08 08:50:26;;;;;;;8.98;7.20;;;;;;;22.11;48.16;99395.22;5050414;28;20059;-68
2022/05/08 08:52:53;;;;;;;10.07;6.82;;;;;;;22.90;47.08;99394.31;5045134;28;20037;-74
2022/05/08 08:55:20;;;;;;;9.15;6.07;;;;;;;23.29;46.31;99388.41;5051801;28;20032;-67
2022/05/08 08:57:46;;;;;;;9.63;6.97;;;;;;;23.06;45.44;99394.41;5046174;28;20031;-65
2022/05/08 09:00:12;;;;;;;10.00;7.72;;;;;;;23.10;46.09;99390.00;5044162;28;20108;-73
2022/05/08 09:02:38;;;;;;;8.13;6.03;;;;;;;24.09;44.26;99378.81;5036631;28;20028;-74
2022/05/08 09:05:09;;;;;;;9.45;6.80;;;;;;;24.96;42.83;99381.34;5048366;28;20021;-69
2022/05/08 09:07:35;;;;;;;9.05;7.13;;;;;;;25.34;41.69;99379.78;5049951;28;20396;-71
2022/05/08 09:10:07;;;;;;;7.32;6.35;;;;;;;25.09;43.27;99383.50;5054056;28;20028;-70
2022/05/08 09:12:32;;;;;;;7.05;6.35;;;;;;;25.18;42.41;99383.75;5035573;28;20025;-70
2022/05/08 09:14:57;;;;;;;10.35;7.70;;;;;;;24.51;44.22;99386.75;5051289;28;20028;-71
2022/05/08 09:17:23;;;;;;;7.35;6.18;;;;;;;24.83;43.70;99380.00;5045806;28;20510;-65
2022/05/08 09:19:48;;;;;;;11.73;7.57;;;;;;;24.66;45.83;99383.97;5052335;28;20040;-67
2022/05/08 09:22:17;;;;;;;8.52;7.30;;;;;;;24.51;45.85;99380.41;5052601;28;20429;-66
2022/05/08 09:24:51;;;;;;;6.65;5.65;;;;;;;25.25;43.76;99384.25;5053180;28;20024;-66
2022/05/08 09:27:17;;;;;;;7.90;6.05;;;;;;;26.14;42.03;99386.94;5051898;28;20025;-66
2022/05/08 09:29:43;;;;;;;7.85;6.80;;;;;;;25.70;43.38;99365.66;5050318;28;20032;-67
2022/05/08 09:32:09;;;;;;;7.22;6.20;;;;;;;26.44;42.09;99378.31;5044745;28;20032;-74
2022/05/08 09:34:57;;;;;;;7.35;5.78;;;;;;;27.85;39.42;99372.28;5031858;28;20029;-74
2022/05/08 09:37:24;;;;;;;6.85;5.75;;;;;;;29.31;37.37;99368.03;5049977;28;20336;-74
2022/05/08 09:39:49;;;;;;;9.55;5.57;;;;;;;30.48;34.44;99339.16;5043217;28;20581;-74
2022/05/08 09:42:37;;;;;;;6.50;5.35;;;;;;;31.01;34.50;99360.53;5049925;28;20064;-74
2022/05/08 09:45:07;;;;;;;8.00;4.05;;;;;;;32.21;30.30;99356.44;5048393;28;20044;-74
2022/05/08 09:48:02;;;;;;;4.60;4.20;;;;;;;33.39;28.74;99353.69;5036938;28;20029;-74
2022/05/08 09:50:29;;;;;;;5.15;3.70;;;;;;;34.24;25.90;99343.16;5016078;28;20037;-73
2022/05/08 09:52:55;;;;;;;5.47;4.07;;;;;;;33.54;25.88;99343.06;5048969;28;20160;-74
2022/05/08 09:55:20;;;;;;;3.97;2.95;;;;;;;34.38;26.15;99340.03;5049659;28;20033;-74
2022/05/08 09:57:45;;;;;;;4.18;2.85;;;;;;;33.54;26.59;99318.63;5048318;28;20032;-75
2022/05/08 10:00:12;;;;;;;5.30;3.03;;;;;;;33.90;26.58;99339.53;5048288;28;20025;-73
2022/05/08 10:02:38;;;;;;;4.38;2.92;;;;;;;33.23;27.37;99349.88;5042165;28;20024;-74
2022/05/08 10:05:04;;;;;;;4.85;3.15;;;;;;;32.41;27.16;99322.09;5048015;28;20140;-75
2022/05/08 10:07:32;;;;;;;3.70;3.08;;;;;;;31.80;27.23;99336.22;5048015;28;20055;-74
2022/05/08 10:15:29;;;;;;;3.88;2.70;;;;;;;28.24;29.85;99345.97;5050425;28;20501;-74
2022/05/08 10:18:31;;;;;;;3.70;2.93;;;;;;;27.61;31.80;99349.28;5050199;28;20037;-74
2022/05/08 10:21:06;;;;;;;5.63;2.95;;;;;;;27.98;30.55;99340.06;5048919;28;20033;-74
2022/05/08 10:23:36;;;;;;;5.85;2.90;;;;;;;27.44;30.71;99339.56;5048452;28;20089;-74
2022/05/08 10:26:15;;;;;;;5.38;2.88;;;;;;;27.49;30.54;99319.19;5050008;28;20029;-74
2022/05/08 10:29:13;;;;;;;;;;;;;;;28.45;29.41;99340.88;5039116;28;20504;-75
2022/05/08 10:31:44;;;;;;;7.75;2.92;;;;;;;29.98;27.30;99333.00;5000480;28;19999;-73
2022/05/08 10:34:11;;;;;;;4.88;2.85;;;;;;;29.28;26.22;99312.94;5048187;28;20033;-75
2022/05/08 10:36:37;;;;;;;6.88;2.72;;;;;;;29.98;26.69;99333.00;5049668;28;20674;-74
2022/05/08 10:39:43;;;;;;;4.43;2.45;;;;;;;29.77;27.32;99329.91;5045655;28;20029;-74
2022/05/08 10:42:24;;;;;;;4.63;2.90;;;;;;;28.75;29.19;99333.88;5035704;28;20029;-74
2022/05/08 10:44:50;;;;;;;3.55;2.70;;;;;;;29.40;27.95;99327.16;5044639;28;20115;-74
2022/05/08 10:47:34;;;;;;;4.30;2.72;;;;;;;30.21;27.07;99323.44;5049152;28;20472;-74
2022/05/08 10:50:01;;;;;;;3.55;2.55;;;;;;;28.92;29.16;99310.94;5030119;28;20025;-74
2022/05/08 10:52:26;;;;;;;5.72;3.00;;;;;;;27.38;30.28;99312.97;5048362;28;20371;-74
2022/05/08 10:55:02;;;;;;;3.58;2.67;;;;;;;25.99;31.99;99315.81;5047814;28;20044;-74
2022/05/08 10:57:35;;;;;;;6.15;3.20;;;;;;;25.98;33.28;99295.56;5056858;28;20037;-75
2022/05/08 11:00:03;;;;;;;5.45;3.30;;;;;;;26.35;33.30;99296.00;5042450;28;20064;-74
2022/05/08 11:02:52;;;;;;;3.75;3.13;;;;;;;29.76;28.68;99306.75;5050091;28;20052;-74
2022/05/08 11:05:29;;;;;;;4.15;2.83;;;;;;;32.74;23.35;99304.66;5045763;28;20067;-75
2022/05/08 11:07:57;;;;;;;4.95;2.90;;;;;;;32.17;24.23;99302.25;5032370;28;20032;-74
2022/05/08 11:10:30;;;;;;;5.72;3.65;;;;;;;31.37;25.85;99308.28;5047175;28;20518;-74
2022/05/08 11:13:00;;;;;;;7.07;3.00;;;;;;;30.16;26.14;99309.63;5049841;28;20037;-77
2022/05/08 11:15:30;;;;;;;5.30;3.15;;;;;;;28.56;28.49;99300.59;5036980;28;20021;-74
2022/05/08 11:18:07;;;;;;;6.50;4.30;;;;;;;26.75;31.12;99308.59;5025081;28;20349;-75
2022/05/08 11:20:57;;;;;;;6.90;2.83;;;;;;;25.57;32.21;99314.50;5050762;28;20029;-75
2022/05/08 11:23:31;;;;;;;10.68;6.43;;;;;;;25.62;32.71;99316.41;5033499;28;20498;-75
2022/05/08 11:25:59;;;;;;;6.05;3.47;;;;;;;26.02;30.73;99298.59;5049263;28;20490;-74
2022/05/08 11:28:27;;;;;;;8.48;4.07;;;;;;;26.18;31.57;99302.03;5046545;28;20024;-75
2022/05/08 11:30:53;;;;;;;5.50;3.03;;;;;;;24.89;31.43;99307.75;5049598;28;20021;-76
2022/05/08 11:36:27;;;;;;;3.42;1.83;;;;;;;26.08;29.15;99305.75;5050436;28;20098;-75
2022/05/08 11:39:03;;;;;;;3.53;2.23;;;;;;;24.96;31.55;99321.25;5037206;28;20064;-75
2022/05/08 11:41:37;;;;;;;6.60;2.67;;;;;;;25.10;32.07;99304.88;5046717;28;20268;-74
2022/05/08 11:44:15;;;;;;;3.40;2.03;;;;;;;25.56;30.92;99324.75;5033713;28;20458;-75
2022/05/08 11:46:44;;;;;;;3.55;2.20;;;;;;;25.87;30.20;99302.34;5052991;28;20025;-76
2022/05/08 11:49:32;;;;;;;5.00;2.30;;;;;;;26.05;30.11;99322.16;5046874;28;20021;-75
2022/05/08 11:52:04;;;;;;;4.22;2.25;;;;;;;25.53;30.92;99307.91;5046115;28;20518;-75
2022/05/08 11:54:40;;;;;;;3.22;1.90;;;;;;;25.18;30.19;99311.75;5028496;28;20116;-75
2022/05/08 11:57:44;;;;;;;6.32;2.00;;;;;;;24.70;30.41;99295.66;5053989;28;20024;-76
2022/05/08 12:00:12;;;;;;;3.63;2.47;;;;;;;24.83;31.77;99305.28;5025522;28;20358;-76